Time,TemperatureF,DewpointF,PressureIn,WindDirection,WindDirectionDegrees,WindSpeedMPH,WindSpeedGustMPH,Humidity,HourlyPrecipIn,Conditions,Clouds,dailyrainin,SoftwareType,DateUTC
2013-07-07 01:11:00,76.0,69.0,30.07,West,276,0.0,0.0,80,0.00,,,0.03,,2013-07-07 05:11:00,
2013-07-07 01:21:00,76.0,69.0,30.07,West,276,0.0,0.0,80,0.00,,,0.03,,2013-07-07 05:21:00,
2013-07-07 01:31:00,76.0,69.0,30.07,West,276,0.0,0.0,80,0.00,,,0.03,,2013-07-07 05:31:00,
2013-07-07 01:41:00,76.0,69.0,30.07,West,276,0.0,0.0,80,0.00,,,0.03,,2013-07-07 05:41:00,
2013-07-07 01:51:00,76.0,69.0,30.07,West,276,0.0,0.0,80,0.00,,,0.03,,2013-07-07 05:51:00,
2013-07-07 02:01:00,73.0,67.0,30.09,West,276,0.0,0.0,82,0.00,,,0.00,,2013-07-07 06:01:00,
2013-07-07 02:11:00,73.0,67.0,30.09,West,276,0.0,0.0,82,0.00,,,0.00,,2013-07-07 06:11:00,
2013-07-07 02:21:00,73.0,67.0,30.09,West,276,0.0,0.0,82,0.00,,,0.00,,2013-07-07 06:21:00,
2013-07-07 02:32:00,71.0,66.0,30.09,West,276,0.0,0.0,85,0.00,,,0.00,,2013-07-07 06:32:00,
2013-07-07 02:43:00,71.0,66.0,30.08,West,276,0.0,0.0,85,0.00,,,0.00,,2013-07-07 06:43:00,
2013-07-07 02:52:00,71.0,66.0,30.08,West,276,0.0,0.0,85,0.00,,,0.00,,2013-07-07 06:52:00,
2013-07-07 03:02:00,71.0,67.0,30.08,West,276,0.0,0.0,86,0.00,,,0.00,,2013-07-07 07:02:00,
2013-07-07 03:11:00,70.0,66.0,30.07,West,276,0.0,0.0,86,0.00,,,0.00,,2013-07-07 07:11:00,
2013-07-07 03:22:00,70.0,66.0,30.07,West,276,0.0,0.0,86,0.00,,,0.00,,2013-07-07 07:22:00,
2013-07-07 03:33:00,70.0,66.0,30.07,West,276,0.0,0.0,87,0.00,,,0.00,,2013-07-07 07:33:00,
2013-07-07 03:44:00,70.0,66.0,30.07,West,276,0.0,0.0,87,0.00,,,0.00,,2013-07-07 07:44:00,
2013-07-07 03:53:00,70.0,66.0,30.07,West,276,0.0,0.0,87,0.00,,,0.00,,2013-07-07 07:53:00,
2013-07-07 04:03:00,70.0,66.0,30.07,West,276,0.0,0.0,88,0.00,,,0.00,,2013-07-07 08:03:00,
2013-07-07 04:12:00,70.0,66.0,30.07,West,276,0.0,0.0,88,0.00,,,0.00,,2013-07-07 08:12:00,
2013-07-07 04:22:00,70.0,66.0,30.07,West,276,0.0,0.0,88,0.00,,,0.00,,2013-07-07 08:22:00,
2013-07-07 04:34:00,70.0,66.0,30.06,West,276,0.0,0.0,88,0.00,,,0.00,,2013-07-07 08:34:00,
2013-07-07 04:44:00,69.0,65.0,30.06,West,276,0.0,0.0,88,0.00,,,0.00,,2013-07-07 08:44:00,
2013-07-07 04:53:00,69.0,65.0,30.06,West,276,0.0,0.0,88,0.00,,,0.00,,2013-07-07 08:53:00,
2013-07-07 05:02:00,69.0,65.0,30.06,West,276,0.0,0.0,88,0.00,,,0.00,,2013-07-07 09:02:00,
2013-07-07 05:12:00,69.0,66.0,30.07,West,276,0.0,0.0,89,0.00,,,0.00,,2013-07-07 09:12:00,
2013-07-07 05:22:00,69.0,66.0,30.07,West,276,0.0,0.0,89,0.00,,,0.00,,2013-07-07 09:22:00,
2013-07-07 05:34:00,69.0,66.0,30.07,West,276,0.0,0.0,89,0.00,,,0.00,,2013-07-07 09:34:00,
2013-07-07 05:43:00,69.0,66.0,30.07,West,276,0.0,0.0,89,0.00,,,0.00,,2013-07-07 09:43:00,
2013-07-07 05:53:00,69.0,66.0,30.07,West,276,0.0,0.0,89,0.00,,,0.00,,2013-07-07 09:53:00,
2013-07-07 06:03:00,69.0,66.0,30.07,West,276,0.0,0.0,89,0.00,,,0.00,,2013-07-07 10:03:00,
2013-07-07 06:23:00,69.0,66.0,30.08,West,276,0.0,0.0,89,0.00,,,0.00,,2013-07-07 10:23:00,
2013-07-07 06:32:00,69.0,66.0,30.08,West,276,0.0,0.0,89,0.00,,,0.00,,2013-07-07 10:32:00,
2013-07-07 06:43:00,69.0,66.0,30.09,West,276,0.0,0.0,89,0.00,,,0.00,,2013-07-07 10:43:00,
2013-07-07 06:52:00,69.0,66.0,30.09,West,276,0.0,0.0,89,0.00,,,0.00,,2013-07-07 10:52:00,
2013-07-07 07:02:00,69.0,66.0,30.09,West,276,0.0,0.0,89,0.00,,,0.00,,2013-07-07 11:02:00,
2013-07-07 07:12:00,69.0,66.0,30.09,West,276,0.0,0.0,89,0.00,,,0.00,,2013-07-07 11:12:00,
2013-07-07 07:23:00,69.0,66.0,30.09,West,276,0.0,0.0,89,0.00,,,0.00,,2013-07-07 11:23:00,
2013-07-07 07:34:00,70.0,67.0,30.09,West,276,0.0,0.0,89,0.00,,,0.00,,2013-07-07 11:34:00,
2013-07-07 07:43:00,70.0,67.0,30.09,West,276,0.0,0.0,89,0.00,,,0.00,,2013-07-07 11:43:00,
2013-07-07 07:53:00,70.0,67.0,30.09,West,276,0.0,0.0,89,0.00,,,0.00,,2013-07-07 11:53:00,
2013-07-07 08:02:00,71.0,68.0,30.09,West,276,0.0,0.0,89,0.00,,,0.00,,2013-07-07 12:02:00,
2013-07-07 08:22:00,72.0,68.0,30.09,West,276,0.0,0.0,88,0.00,,,0.00,,2013-07-07 12:22:00,
2013-07-07 08:34:00,72.0,68.0,30.09,West,276,0.0,0.0,88,0.00,,,0.00,,2013-07-07 12:34:00,
2013-07-07 08:43:00,73.0,69.0,30.09,WSW,240,0.0,0.0,87,0.00,,,0.00,,2013-07-07 12:43:00,
2013-07-07 08:52:00,73.0,69.0,30.09,WSW,240,0.0,0.0,87,0.00,,,0.00,,2013-07-07 12:52:00,
2013-07-07 09:03:00,73.0,69.0,30.09,WSW,250,0.0,0.0,86,0.00,,,0.00,,2013-07-07 13:03:00,
2013-07-07 09:12:00,73.0,69.0,30.09,WSW,250,0.0,0.0,86,0.00,,,0.00,,2013-07-07 13:12:00,
2013-07-07 09:22:00,74.0,69.0,30.09,WSW,251,0.0,0.0,85,0.00,,,0.00,,2013-07-07 13:22:00,
2013-07-07 09:34:00,75.0,70.0,30.09,WSW,251,0.0,0.0,85,0.00,,,0.00,,2013-07-07 13:34:00,
2013-07-07 09:43:00,75.0,69.0,30.09,WSW,251,0.0,0.0,83,0.00,,,0.00,,2013-07-07 13:43:00,
2013-07-07 09:52:00,75.0,69.0,30.09,WSW,251,0.0,0.0,83,0.00,,,0.00,,2013-07-07 13:52:00,
2013-07-07 10:02:00,76.0,70.0,30.09,SW,216,0.0,0.0,82,0.00,,,0.00,,2013-07-07 14:02:00,
2013-07-07 10:12:00,76.0,70.0,30.09,SSW,192,0.0,0.0,82,0.00,,,0.00,,2013-07-07 14:12:00,
2013-07-07 10:22:00,76.0,70.0,30.09,SSW,192,0.0,0.0,82,0.00,,,0.00,,2013-07-07 14:22:00,
2013-07-07 10:34:00,76.0,70.0,30.09,SW,234,0.0,0.0,81,0.00,,,0.00,,2013-07-07 14:34:00,
2013-07-07 10:43:00,78.0,71.0,30.09,West,273,0.0,0.0,78,0.00,,,0.00,,2013-07-07 14:43:00,
2013-07-07 10:53:00,78.0,71.0,30.09,West,273,0.0,0.0,78,0.00,,,0.00,,2013-07-07 14:53:00,
2013-07-07 11:02:00,79.0,71.0,30.09,NW,321,0.0,0.0,76,0.00,,,0.00,,2013-07-07 15:02:00,
2013-07-07 11:11:00,77.0,69.0,30.09,WSW,245,0.0,0.0,77,0.00,,,0.00,,2013-07-07 15:11:00,
2013-07-07 11:22:00,77.0,69.0,30.09,WSW,245,0.0,0.0,77,0.00,,,0.00,,2013-07-07 15:22:00,
2013-07-07 11:34:00,77.0,70.0,30.09,SW,231,0.0,0.0,78,0.00,,,0.00,,2013-07-07 15:34:00,
2013-07-07 11:52:00,79.0,71.0,30.09,WSW,248,0.0,0.0,76,0.00,,,0.00,,2013-07-07 15:52:00,
2013-07-07 12:02:00,79.0,71.0,30.09,NW,305,0.0,0.0,77,0.00,,,0.00,,2013-07-07 16:02:00,
2013-07-07 12:11:00,80.0,72.0,30.09,NE,34,0.0,0.0,76,0.00,,,0.00,,2013-07-07 16:11:00,
2013-07-07 12:23:00,80.0,72.0,30.09,NE,34,0.0,0.0,76,0.00,,,0.00,,2013-07-07 16:23:00,
2013-07-07 12:43:00,81.0,72.0,30.08,NW,311,0.0,0.0,73,0.00,,,0.00,,2013-07-07 16:43:00,
2013-07-07 12:53:00,81.0,72.0,30.08,NW,311,0.0,0.0,73,0.00,,,0.00,,2013-07-07 16:53:00,
2013-07-07 13:02:00,80.0,72.0,30.07,NW,311,0.0,0.0,76,0.00,,,0.00,,2013-07-07 17:02:00,
2013-07-07 13:12:00,81.0,73.0,30.06,SW,232,0.0,0.0,76,0.00,,,0.00,,2013-07-07 17:12:00,
2013-07-07 13:22:00,81.0,73.0,30.06,SW,232,0.0,0.0,76,0.00,,,0.00,,2013-07-07 17:22:00,
2013-07-07 13:34:00,82.0,72.0,30.06,ENE,59,0.0,0.0,71,0.00,,,0.00,,2013-07-07 17:34:00,
2013-07-07 13:43:00,81.0,72.0,30.05,ENE,59,0.0,0.0,73,0.00,,,0.00,,2013-07-07 17:43:00,
2013-07-07 13:53:00,81.0,72.0,30.05,ENE,59,0.0,0.0,73,0.00,,,0.00,,2013-07-07 17:53:00,
2013-07-07 14:02:00,82.0,72.0,30.05,West,274,0.0,0.0,72,0.00,,,0.00,,2013-07-07 18:02:00,
2013-07-07 14:12:00,84.0,73.0,30.04,West,269,0.0,0.0,70,0.00,,,0.00,,2013-07-07 18:12:00,
2013-07-07 14:22:00,84.0,73.0,30.04,West,269,0.0,0.0,70,0.00,,,0.00,,2013-07-07 18:22:00,
2013-07-07 14:33:00,83.0,72.0,30.04,West,277,0.0,0.0,70,0.00,,,0.00,,2013-07-07 18:33:00,
2013-07-07 14:43:00,85.0,72.0,30.03,South,182,0.0,0.0,66,0.00,,,0.00,,2013-07-07 18:43:00,
2013-07-07 14:53:00,85.0,72.0,30.03,South,182,0.0,0.0,66,0.00,,,0.00,,2013-07-07 18:53:00,
2013-07-07 15:01:00,84.0,71.0,30.03,NW,325,0.0,0.0,66,0.00,,,0.00,,2013-07-07 19:01:00,
2013-07-07 15:22:00,84.0,74.0,30.02,WSW,241,0.0,0.0,71,0.00,,,0.00,,2013-07-07 19:22:00,
2013-07-07 15:34:00,83.0,72.0,30.02,WNW,286,0.0,0.0,69,0.00,,,0.00,,2013-07-07 19:34:00,
2013-07-07 15:43:00,83.0,72.0,30.02,WSW,254,0.0,0.0,70,0.00,,,0.00,,2013-07-07 19:43:00,
2013-07-07 15:54:00,83.0,72.0,30.02,WSW,254,0.0,0.0,70,0.00,,,0.00,,2013-07-07 19:54:00,
2013-07-07 16:02:00,84.0,72.0,30.01,WNW,298,0.0,0.0,67,0.00,,,0.00,,2013-07-07 20:02:00,
2013-07-07 16:11:00,83.0,73.0,30.01,West,271,0.0,0.0,71,0.00,,,0.00,,2013-07-07 20:11:00,
2013-07-07 16:22:00,83.0,73.0,30.01,West,271,0.0,0.0,71,0.00,,,0.00,,2013-07-07 20:22:00,
2013-07-07 16:34:00,82.0,71.0,30.01,West,271,0.0,0.0,70,0.00,,,0.00,,2013-07-07 20:34:00,
2013-07-07 16:42:00,82.0,73.0,30.00,WSW,249,0.0,0.0,75,0.00,,,0.00,,2013-07-07 20:42:00,
2013-07-07 16:53:00,82.0,73.0,30.00,WSW,249,0.0,0.0,75,0.00,,,0.00,,2013-07-07 20:53:00,
2013-07-07 17:02:00,83.0,73.0,29.99,WNW,293,0.0,0.0,72,0.00,,,0.00,,2013-07-07 21:02:00,
2013-07-07 17:11:00,84.0,72.0,29.98,West,262,0.0,0.0,68,0.00,,,0.00,,2013-07-07 21:11:00,
2013-07-07 17:22:00,84.0,72.0,29.98,West,262,0.0,0.0,68,0.00,,,0.00,,2013-07-07 21:22:00,
2013-07-07 17:34:00,84.0,74.0,29.98,West,262,0.0,0.0,72,0.00,,,0.00,,2013-07-07 21:34:00,
2013-07-07 17:43:00,84.0,72.0,29.98,SSW,207,0.0,0.0,68,0.00,,,0.00,,2013-07-07 21:43:00,
2013-07-07 17:53:00,84.0,72.0,29.98,SSW,207,0.0,0.0,68,0.00,,,0.00,,2013-07-07 21:53:00,
2013-07-07 18:01:00,83.0,72.0,29.97,SSW,202,0.0,0.0,70,0.00,,,0.00,,2013-07-07 22:01:00,
2013-07-07 18:11:00,82.0,72.0,29.98,SSW,202,0.0,0.0,72,0.00,,,0.00,,2013-07-07 22:11:00,
2013-07-07 18:22:00,82.0,72.0,29.98,SSW,202,0.0,0.0,72,0.00,,,0.00,,2013-07-07 22:22:00,
2013-07-07 18:34:00,81.0,72.0,29.97,SSW,202,0.0,0.0,75,0.00,,,0.00,,2013-07-07 22:34:00,
2013-07-07 18:44:00,82.0,73.0,29.97,SSW,202,0.0,0.0,75,0.00,,,0.00,,2013-07-07 22:44:00,
2013-07-07 18:53:00,82.0,73.0,29.97,SSW,202,0.0,0.0,75,0.00,,,0.00,,2013-07-07 22:53:00,
2013-07-07 19:02:00,81.0,73.0,29.97,SSW,202,0.0,0.0,77,0.00,,,0.00,,2013-07-07 23:02:00,
2013-07-07 19:12:00,81.0,73.0,29.97,SSW,211,0.0,0.0,76,0.00,,,0.00,,2013-07-07 23:12:00,
2013-07-07 19:22:00,81.0,73.0,29.97,SSW,211,0.0,0.0,76,0.00,,,0.00,,2013-07-07 23:22:00,
2013-07-07 19:33:00,81.0,73.0,29.98,SSW,210,0.0,0.0,78,0.00,,,0.00,,2013-07-07 23:33:00,
2013-07-07 19:43:00,80.0,72.0,29.98,SSW,211,0.0,0.0,78,0.00,,,0.00,,2013-07-07 23:43:00,
2013-07-07 19:53:00,80.0,72.0,29.98,SSW,211,0.0,0.0,78,0.00,,,0.00,,2013-07-07 23:53:00,
2013-07-07 20:02:00,80.0,73.0,29.98,SSW,211,0.0,0.0,80,0.00,,,0.00,,2013-07-08 00:02:00,
2013-07-07 20:12:00,79.0,73.0,29.98,SSW,211,0.0,0.0,81,0.00,,,0.00,,2013-07-08 00:12:00,
2013-07-07 20:22:00,79.0,73.0,29.98,SSW,211,0.0,0.0,81,0.00,,,0.00,,2013-07-08 00:22:00,
2013-07-07 20:33:00,79.0,73.0,29.98,SSW,210,0.0,0.0,82,0.00,,,0.00,,2013-07-08 00:33:00,
2013-07-07 20:43:00,78.0,72.0,29.99,SSW,211,0.0,0.0,83,0.00,,,0.00,,2013-07-08 00:43:00,
2013-07-07 20:53:00,78.0,72.0,29.99,SSW,211,0.0,0.0,83,0.00,,,0.00,,2013-07-08 00:53:00,
2013-07-07 21:01:00,78.0,73.0,29.99,SSW,211,0.0,0.0,84,0.00,,,0.00,,2013-07-08 01:01:00,
2013-07-07 21:11:00,78.0,73.0,30.00,SSW,210,0.0,0.0,85,0.00,,,0.00,,2013-07-08 01:11:00,
2013-07-07 21:22:00,78.0,73.0,30.00,SSW,210,0.0,0.0,85,0.00,,,0.00,,2013-07-08 01:22:00,
2013-07-07 21:32:00,78.0,72.0,30.02,SW,230,0.0,0.0,81,0.00,,,0.00,,2013-07-08 01:32:00,
2013-07-07 21:43:00,74.0,69.0,30.01,West,265,0.0,0.0,84,0.19,,,0.19,,2013-07-08 01:43:00,
2013-07-07 21:53:00,74.0,69.0,30.01,West,265,0.0,0.0,84,0.19,,,0.19,,2013-07-08 01:53:00,
2013-07-07 22:03:00,73.0,69.0,30.02,West,265,0.0,0.0,88,0.19,,,0.19,,2013-07-08 02:03:00,
2013-07-07 22:11:00,73.0,70.0,30.03,West,265,0.0,0.0,89,0.19,,,0.19,,2013-07-08 02:11:00,
2013-07-07 22:22:00,73.0,70.0,30.03,West,265,0.0,0.0,89,0.19,,,0.19,,2013-07-08 02:22:00,
2013-07-07 22:33:00,73.0,70.0,30.03,West,265,0.0,0.0,89,0.19,,,0.19,,2013-07-08 02:33:00,
2013-07-07 22:42:00,72.0,69.0,30.03,West,265,0.0,0.0,89,0.00,,,0.19,,2013-07-08 02:42:00,
2013-07-07 22:52:00,72.0,69.0,30.03,West,265,0.0,0.0,89,0.00,,,0.19,,2013-07-08 02:52:00,
2013-07-07 23:02:00,72.0,69.0,30.04,West,265,0.0,0.0,89,0.00,,,0.19,,2013-07-08 03:02:00,
2013-07-07 23:12:00,72.0,69.0,30.03,West,265,0.0,0.0,90,0.00,,,0.19,,2013-07-08 03:12:00,
2013-07-07 23:23:00,72.0,69.0,30.03,West,265,0.0,0.0,90,0.00,,,0.19,,2013-07-08 03:23:00,
2013-07-07 23:34:00,72.0,69.0,30.05,West,265,0.0,0.0,90,0.00,,,0.19,,2013-07-08 03:34:00,
2013-07-07 23:42:00,72.0,69.0,30.05,West,265,0.0,0.0,90,0.02,,,0.21,,2013-07-08 03:42:00,
2013-07-07 23:52:00,72.0,69.0,30.05,West,265,0.0,0.0,90,0.02,,,0.21,,2013-07-08 03:52:00,